sensor_id;sensor_type;location;lat;lon;timestamp;pressure;altitude;pressure_sealevel;temperature;humidity
14882;BME280;7533;51.278;12.588;2022-11-20T00:03:42;99774.63;;;22.68;58.89
14882;BME280;7533;51.278;12.588;2022-11-20T00:08:47;99783.66;;;22.67;58.82
14882;BME280;7533;51.278;12.588;2022-11-20T00:13:51;99780.97;;;22.67;59.04
14882;BME280;7533;51.278;12.588;2022-11-20T00:18:54;99778.03;;;22.70;58.92
14882;BME280;7533;51.278;12.588;2022-11-20T00:23:59;99779.16;;;22.67;58.94
14882;BME280;7533;51.278;12.588;2022-11-20T00:29:02;99768.47;;;22.66;59.17
14882;BME280;7533;51.278;12.588;2022-11-20T00:34:05;99771.94;;;22.68;59.26
14882;BME280;7533;51.278;12.588;2022-11-20T00:39:09;99772.03;;;22.66;59.36
14882;BME280;7533;51.278;12.588;2022-11-20T00:44:12;99779.25;;;22.66;59.25
14882;BME280;7533;51.278;12.588;2022-11-20T00:49:15;99790.06;;;22.66;59.24
14882;BME280;7533;51.278;12.588;2022-11-20T00:54:19;99774.84;;;22.65;59.39
14882;BME280;7533;51.278;12.588;2022-11-20T00:59:22;99765.69;;;22.67;59.42
14882;BME280;7533;51.278;12.588;2022-11-20T01:04:25;99766.78;;;22.65;59.35
14882;BME280;7533;51.278;12.588;2022-11-20T01:09:29;99775.72;;;22.65;59.41
14882;BME280;7533;51.278;12.588;2022-11-20T01:14:32;99764.91;;;22.65;59.35
14882;BME280;7533;51.278;12.588;2022-11-20T01:19:34;99763.09;;;22.66;59.53
14882;BME280;7533;51.278;12.588;2022-11-20T01:24:39;99765.06;;;22.64;59.55
14882;BME280;7533;51.278;12.588;2022-11-20T01:29:41;99772.28;;;22.63;59.60
14882;BME280;7533;51.278;12.588;2022-11-20T01:34:44;99775.72;;;22.65;59.58
14882;BME280;7533;51.278;12.588;2022-11-20T01:39:48;99772.16;;;22.65;59.63
14882;BME280;7533;51.278;12.588;2022-11-20T01:44:55;99768.63;;;22.64;59.61
14882;BME280;7533;51.278;12.588;2022-11-20T01:50:01;99753.28;;;22.65;59.79
14882;BME280;7533;51.278;12.588;2022-11-20T01:55:09;99752.28;;;22.66;59.81
14882;BME280;7533;51.278;12.588;2022-11-20T02:00:15;99751.44;;;22.65;59.84
14882;BME280;7533;51.278;12.588;2022-11-20T02:05:23;99747.75;;;22.66;59.87
14882;BME280;7533;51.278;12.588;2022-11-20T02:10:29;99738.09;;;22.64;59.99
14882;BME280;7533;51.278;12.588;2022-11-20T02:15:33;99735.53;;;22.62;59.88
14882;BME280;7533;51.278;12.588;2022-11-20T02:20:36;99742.88;;;22.60;59.85
14882;BME280;7533;51.278;12.588;2022-11-20T02:25:42;99735.03;;;22.57;59.96
14882;BME280;7533;51.278;12.588;2022-11-20T02:30:46;99740.34;;;22.48;60.11
14882;BME280;7533;51.278;12.588;2022-11-20T02:35:48;99731.16;;;22.39;60.19
14882;BME280;7533;51.278;12.588;2022-11-20T02:40:53;99729.22;;;22.30;60.35
14882;BME280;7533;51.278;12.588;2022-11-20T02:45:56;99732.06;;;22.17;60.68
14882;BME280;7533;51.278;12.588;2022-11-20T02:50:59;99726.38;;;22.09;61.19
14882;BME280;7533;51.278;12.588;2022-11-20T02:56:04;99724.56;;;21.98;61.50
14882;BME280;7533;51.278;12.588;2022-11-20T03:01:06;99727.13;;;21.88;62.00
14882;BME280;7533;51.278;12.588;2022-11-20T03:06:09;99716.97;;;21.81;62.19
14882;BME280;7533;51.278;12.588;2022-11-20T03:11:14;99724.69;;;21.74;62.58
14882;BME280;7533;51.278;12.588;2022-11-20T03:16:19;99719.78;;;21.68;62.74
14882;BME280;7533;51.278;12.588;2022-11-20T03:21:22;99719.41;;;21.61;62.99
14882;BME280;7533;51.278;12.588;2022-11-20T03:26:26;99718.16;;;21.54;63.13
14882;BME280;7533;51.278;12.588;2022-11-20T03:31:30;99714.25;;;21.47;63.27
14882;BME280;7533;51.278;12.588;2022-11-20T03:36:34;99713.03;;;21.40;63.73
14882;BME280;7533;51.278;12.588;2022-11-20T03:41:40;99701.97;;;21.32;63.81
14882;BME280;7533;51.278;12.588;2022-11-20T03:46:43;99703.19;;;21.28;63.81
14882;BME280;7533;51.278;12.588;2022-11-20T03:51:46;99691.16;;;21.21;64.20
14882;BME280;7533;51.278;12.588;2022-11-20T03:56:50;99694.31;;;21.14;64.32
14882;BME280;7533;51.278;12.588;2022-11-20T04:01:53;99686.00;;;21.06;64.81
14882;BME280;7533;51.278;12.588;2022-11-20T04:06:56;99673.03;;;21.00;64.78
14882;BME280;7533;51.278;12.588;2022-11-20T04:12:00;99675.44;;;20.92;64.85
14882;BME280;7533;51.278;12.588;2022-11-20T04:17:03;99691.06;;;20.87;64.77
14882;BME280;7533;51.278;12.588;2022-11-20T04:22:06;99693.16;;;20.83;64.94
14882;BME280;7533;51.278;12.588;2022-11-20T04:27:10;99688.31;;;20.76;65.01
14882;BME280;7533;51.278;12.588;2022-11-20T04:32:12;99689.56;;;20.72;65.27
14882;BME280;7533;51.278;12.588;2022-11-20T04:37:15;99687.22;;;20.67;65.46
14882;BME280;7533;51.278;12.588;2022-11-20T04:42:19;99683.88;;;20.64;65.72
14882;BME280;7533;51.278;12.588;2022-11-20T04:47:31;99681.66;;;20.57;65.77
14882;BME280;7533;51.278;12.588;2022-11-20T04:52:34;99684.69;;;20.53;66.10
14882;BME280;7533;51.278;12.588;2022-11-20T04:57:38;99686.00;;;20.47;66.21
14882;BME280;7533;51.278;12.588;2022-11-20T05:02:41;99684.59;;;20.42;66.49
14882;BME280;7533;51.278;12.588;2022-11-20T05:07:43;99680.31;;;20.39;66.55
14882;BME280;7533;51.278;12.588;2022-11-20T05:12:47;99671.63;;;20.35;66.60
14882;BME280;7533;51.278;12.588;2022-11-20T05:17:51;99667.47;;;20.31;66.78
14882;BME280;7533;51.278;12.588;2022-11-20T05:22:56;99670.50;;;20.27;67.14
14882;BME280;7533;51.278;12.588;2022-11-20T05:28:00;99671.47;;;20.26;67.20
14882;BME280;7533;51.278;12.588;2022-11-20T05:33:03;99670.81;;;20.22;67.31
14882;BME280;7533;51.278;12.588;2022-11-20T05:38:06;99672.97;;;20.17;68.13
14882;BME280;7533;51.278;12.588;2022-11-20T05:43:10;99666.97;;;20.14;67.95
14882;BME280;7533;51.278;12.588;2022-11-20T05:48:13;99650.75;;;20.15;67.86
14882;BME280;7533;51.278;12.588;2022-11-20T05:53:15;99654.50;;;20.13;68.39
14882;BME280;7533;51.278;12.588;2022-11-20T05:58:19;99644.94;;;20.08;68.18
14882;BME280;7533;51.278;12.588;2022-11-20T06:03:22;99639.69;;;20.07;68.30
14882;BME280;7533;51.278;12.588;2022-11-20T06:08:25;99641.66;;;20.05;68.29
14882;BME280;7533;51.278;12.588;2022-11-20T06:13:29;99640.03;;;20.02;68.46
14882;BME280;7533;51.278;12.588;2022-11-20T06:18:32;99642.09;;;19.99;68.57
14882;BME280;7533;51.278;12.588;2022-11-20T06:23:35;99643.94;;;19.98;68.43
14882;BME280;7533;51.278;12.588;2022-11-20T06:28:40;99644.16;;;19.95;68.37
14882;BME280;7533;51.278;12.588;2022-11-20T06:33:43;99647.06;;;19.92;68.52
14882;BME280;7533;51.278;12.588;2022-11-20T06:38:47;99652.53;;;19.91;68.60
14882;BME280;7533;51.278;12.588;2022-11-20T06:43:51;99656.44;;;19.87;68.37
14882;BME280;7533;51.278;12.588;2022-11-20T06:48:54;99648.59;;;19.84;68.38
14882;BME280;7533;51.278;12.588;2022-11-20T06:53:57;99653.97;;;19.84;68.44
14882;BME280;7533;51.278;12.588;2022-11-20T06:59:05;99649.03;;;19.77;68.74
14882;BME280;7533;51.278;12.588;2022-11-20T07:04:08;99649.88;;;19.78;68.69
14882;BME280;7533;51.278;12.588;2022-11-20T07:09:11;99640.25;;;19.75;68.89
14882;BME280;7533;51.278;12.588;2022-11-20T07:14:15;99638.41;;;19.76;68.59
14882;BME280;7533;51.278;12.588;2022-11-20T07:19:17;99633.25;;;19.73;68.73
14882;BME280;7533;51.278;12.588;2022-11-20T07:24:21;99631.41;;;19.73;68.89
14882;BME280;7533;51.278;12.588;2022-11-20T07:29:25;99636.19;;;19.70;68.78
14882;BME280;7533;51.278;12.588;2022-11-20T07:34:28;99644.22;;;19.70;68.67
14882;BME280;7533;51.278;12.588;2022-11-20T07:39:30;99636.25;;;19.68;68.64
14882;BME280;7533;51.278;12.588;2022-11-20T07:44:35;99645.09;;;19.70;69.00
14882;BME280;7533;51.278;12.588;2022-11-20T07:49:38;99643.13;;;19.72;69.14
14882;BME280;7533;51.278;12.588;2022-11-20T07:54:40;99642.16;;;19.73;69.38
14882;BME280;7533;51.278;12.588;2022-11-20T07:59:45;99644.09;;;19.71;69.73
14882;BME280;7533;51.278;12.588;2022-11-20T08:04:47;99630.56;;;19.73;69.62
14882;BME280;7533;51.278;12.588;2022-11-20T08:09:50;99632.41;;;19.72;69.52
14882;BME280;7533;51.278;12.588;2022-11-20T08:14:54;99625.31;;;19.71;69.58
14882;BME280;7533;51.278;12.588;2022-11-20T08:20:00;99622.63;;;19.71;69.49
14882;BME280;7533;51.278;12.588;2022-11-20T08:25:03;99619.09;;;19.71;69.64
14882;BME280;7533;51.278;12.588;2022-11-20T08:30:09;99609.31;;;19.70;70.31
14882;BME280;7533;51.278;12.588;2022-11-20T08:35:12;99613.81;;;19.69;70.88
14882;BME280;7533;51.278;12.588;2022-11-20T08:40:15;99604.69;;;19.72;71.70
14882;BME280;7533;51.278;12.588;2022-11-20T08:45:21;99618.84;;;18.05;46.95
14882;BME280;7533;51.278;12.588;2022-11-20T08:50:24;99621.53;;;16.47;48.92
14882;BME280;7533;51.278;12.588;2022-11-20T08:55:27;99639.41;;;15.18;48.40
14882;BME280;7533;51.278;12.588;2022-11-20T09:00:31;99633.97;;;16.32;57.27
14882;BME280;7533;51.278;12.588;2022-11-20T09:05:34;99625.25;;;17.18;57.73
14882;BME280;7533;51.278;12.588;2022-11-20T09:10:37;99632.22;;;17.64;58.45
14882;BME280;7533;51.278;12.588;2022-11-20T09:15:42;99630.25;;;17.94;59.62
14882;BME280;7533;51.278;12.588;2022-11-20T09:20:45;99634.31;;;18.14;60.37
14882;BME280;7533;51.278;12.588;2022-11-20T09:25:48;99631.56;;;18.29;60.69
14882;BME280;7533;51.278;12.588;2022-11-20T09:30:52;99633.34;;;18.42;61.12
14882;BME280;7533;51.278;12.588;2022-11-20T09:35:54;99634.47;;;18.53;61.69
14882;BME280;7533;51.278;12.588;2022-11-20T09:41:02;99625.78;;;18.62;61.95
14882;BME280;7533;51.278;12.588;2022-11-20T09:46:11;99618.28;;;18.67;62.49
14882;BME280;7533;51.278;12.588;2022-11-20T09:51:29;99609.00;;;18.72;62.77
14882;BME280;7533;51.278;12.588;2022-11-20T09:56:34;99613.09;;;18.78;62.68
14882;BME280;7533;51.278;12.588;2022-11-20T10:01:41;99624.16;;;18.86;63.12
14882;BME280;7533;51.278;12.588;2022-11-20T10:06:52;99618.06;;;18.97;63.12
14882;BME280;7533;51.278;12.588;2022-11-20T10:12:24;99608.84;;;19.14;63.08
14882;BME280;7533;51.278;12.588;2022-11-20T10:17:53;99605.03;;;19.29;62.98
14882;BME280;7533;51.278;12.588;2022-11-20T10:23:24;99588.06;;;19.41;63.00
14882;BME280;7533;51.278;12.588;2022-11-20T10:28:43;99595.03;;;19.56;62.70
14882;BME280;7533;51.278;12.588;2022-11-20T10:34:03;99579.16;;;19.66;62.57
14882;BME280;7533;51.278;12.588;2022-11-20T10:39:18;99579.09;;;19.79;62.46
14882;BME280;7533;51.278;12.588;2022-11-20T10:44:27;99581.13;;;19.88;62.34
14882;BME280;7533;51.278;12.588;2022-11-20T10:49:52;99570.66;;;19.96;62.22
14882;BME280;7533;51.278;12.588;2022-11-20T10:55:00;99554.84;;;20.04;62.30
14882;BME280;7533;51.278;12.588;2022-11-20T11:00:07;99543.50;;;20.12;62.21
14882;BME280;7533;51.278;12.588;2022-11-20T11:05:33;99535.97;;;20.17;62.12
14882;BME280;7533;51.278;12.588;2022-11-20T11:10:43;99532.81;;;20.23;62.21
14882;BME280;7533;51.278;12.588;2022-11-20T11:15:49;99521.72;;;20.28;62.48
14882;BME280;7533;51.278;12.588;2022-11-20T11:20:54;99511.59;;;20.31;62.36
14882;BME280;7533;51.278;12.588;2022-11-20T11:25:58;99518.44;;;20.35;62.09
14882;BME280;7533;51.278;12.588;2022-11-20T11:31:01;99512.97;;;20.37;62.11
14882;BME280;7533;51.278;12.588;2022-11-20T11:36:17;99512.56;;;20.42;62.02
14882;BME280;7533;51.278;12.588;2022-11-20T11:41:24;99499.78;;;20.45;62.04
14882;BME280;7533;51.278;12.588;2022-11-20T11:46:31;99520.31;;;20.46;61.72
14882;BME280;7533;51.278;12.588;2022-11-20T11:51:40;99511.06;;;20.50;61.65
14882;BME280;7533;51.278;12.588;2022-11-20T11:56:48;99504.47;;;20.54;61.56
14882;BME280;7533;51.278;12.588;2022-11-20T12:01:56;99502.50;;;20.56;61.56
14882;BME280;7533;51.278;12.588;2022-11-20T12:07:10;99500.56;;;20.58;61.47
14882;BME280;7533;51.278;12.588;2022-11-20T12:12:37;99508.53;;;20.60;61.48
14882;BME280;7533;51.278;12.588;2022-11-20T12:17:42;99504.59;;;20.64;61.41
14882;BME280;7533;51.278;12.588;2022-11-20T12:22:52;99493.75;;;20.66;61.46
14882;BME280;7533;51.278;12.588;2022-11-20T12:28:19;99493.47;;;20.69;61.30
14882;BME280;7533;51.278;12.588;2022-11-20T12:33:51;99486.78;;;20.74;61.35
14882;BME280;7533;51.278;12.588;2022-11-20T12:39:07;99485.28;;;20.81;61.20
14882;BME280;7533;51.278;12.588;2022-11-20T12:44:21;99482.59;;;20.93;61.24
14882;BME280;7533;51.278;12.588;2022-11-20T12:49:53;99471.75;;;21.05;61.03
14882;BME280;7533;51.278;12.588;2022-11-20T12:55:16;99470.47;;;21.21;60.86
14882;BME280;7533;51.278;12.588;2022-11-20T13:00:20;99470.13;;;21.36;60.66
14882;BME280;7533;51.278;12.588;2022-11-20T13:05:28;99470.09;;;21.48;60.83
14882;BME280;7533;51.278;12.588;2022-11-20T13:10:38;99461.66;;;21.52;60.70
14882;BME280;7533;51.278;12.588;2022-11-20T13:15:51;99463.97;;;21.57;60.38
14882;BME280;7533;51.278;12.588;2022-11-20T13:20:57;99456.47;;;21.60;60.36
14882;BME280;7533;51.278;12.588;2022-11-20T13:26:13;99461.63;;;21.63;59.61
14882;BME280;7533;51.278;12.588;2022-11-20T13:31:29;99466.63;;;21.68;59.57
14882;BME280;7533;51.278;12.588;2022-11-20T13:36:33;99466.13;;;21.74;59.17
14882;BME280;7533;51.278;12.588;2022-11-20T13:41:39;99457.03;;;21.75;58.84
14882;BME280;7533;51.278;12.588;2022-11-20T13:46:44;99450.09;;;21.73;58.89
14882;BME280;7533;51.278;12.588;2022-11-20T13:51:49;99452.78;;;21.73;58.78
14882;BME280;7533;51.278;12.588;2022-11-20T13:57:01;99449.09;;;21.74;58.71
14882;BME280;7533;51.278;12.588;2022-11-20T14:02:11;99434.78;;;21.73;58.60
14882;BME280;7533;51.278;12.588;2022-11-20T14:07:16;99428.56;;;21.73;58.45
14882;BME280;7533;51.278;12.588;2022-11-20T14:12:23;99418.72;;;21.72;58.08
14882;BME280;7533;51.278;12.588;2022-11-20T14:17:31;99423.16;;;21.73;57.42
14882;BME280;7533;51.278;12.588;2022-11-20T14:22:35;99430.63;;;21.69;56.84
14882;BME280;7533;51.278;12.588;2022-11-20T14:27:41;99433.47;;;21.68;56.37
14882;BME280;7533;51.278;12.588;2022-11-20T14:32:46;99436.25;;;21.66;56.32
14882;BME280;7533;51.278;12.588;2022-11-20T14:37:50;99435.16;;;21.69;56.81
14882;BME280;7533;51.278;12.588;2022-11-20T14:42:55;99437.59;;;21.72;57.03
14882;BME280;7533;51.278;12.588;2022-11-20T14:47:59;99427.41;;;21.75;57.51
14882;BME280;7533;51.278;12.588;2022-11-20T14:53:02;99415.13;;;21.82;57.32
14882;BME280;7533;51.278;12.588;2022-11-20T14:58:20;99425.38;;;21.88;57.33
14882;BME280;7533;51.278;12.588;2022-11-20T15:03:31;99430.16;;;21.96;57.67
14882;BME280;7533;51.278;12.588;2022-11-20T15:08:34;99436.84;;;22.02;57.48
14882;BME280;7533;51.278;12.588;2022-11-20T15:13:38;99437.19;;;22.08;57.55
14882;BME280;7533;51.278;12.588;2022-11-20T15:18:41;99435.84;;;22.14;57.58
14882;BME280;7533;51.278;12.588;2022-11-20T15:23:44;99443.53;;;22.18;57.76
14882;BME280;7533;51.278;12.588;2022-11-20T15:28:49;99440.31;;;22.25;57.64
14882;BME280;7533;51.278;12.588;2022-11-20T15:33:52;99430.13;;;22.28;57.64
14882;BME280;7533;51.278;12.588;2022-11-20T15:38:54;99431.56;;;22.32;57.50
14882;BME280;7533;51.278;12.588;2022-11-20T15:43:58;99432.00;;;22.37;57.70
14882;BME280;7533;51.278;12.588;2022-11-20T15:49:02;99437.84;;;22.42;57.62
14882;BME280;7533;51.278;12.588;2022-11-20T15:54:09;99438.31;;;22.48;57.68
14882;BME280;7533;51.278;12.588;2022-11-20T15:59:14;99431.69;;;22.52;57.47
14882;BME280;7533;51.278;12.588;2022-11-20T16:04:17;99423.19;;;22.56;57.65
14882;BME280;7533;51.278;12.588;2022-11-20T16:09:21;99424.59;;;22.60;57.51
14882;BME280;7533;51.278;12.588;2022-11-20T16:14:26;99426.06;;;22.64;57.43
14882;BME280;7533;51.278;12.588;2022-11-20T16:19:46;99416.56;;;22.70;57.26
14882;BME280;7533;51.278;12.588;2022-11-20T16:24:48;99415.16;;;22.76;57.30
14882;BME280;7533;51.278;12.588;2022-11-20T16:29:53;99416.63;;;22.80;57.41
14882;BME280;7533;51.278;12.588;2022-11-20T16:34:56;99418.91;;;22.84;57.31
14882;BME280;7533;51.278;12.588;2022-11-20T16:39:59;99413.13;;;22.89;57.31
14882;BME280;7533;51.278;12.588;2022-11-20T16:45:04;99412.56;;;22.95;57.07
14882;BME280;7533;51.278;12.588;2022-11-20T16:50:08;99405.91;;;22.99;57.03
14882;BME280;7533;51.278;12.588;2022-11-20T16:55:11;99408.06;;;23.05;57.04
14882;BME280;7533;51.278;12.588;2022-11-20T17:00:15;99403.94;;;23.11;56.91
14882;BME280;7533;51.278;12.588;2022-11-20T17:05:18;99408.09;;;23.15;56.81
14882;BME280;7533;51.278;12.588;2022-11-20T17:10:21;99405.69;;;23.21;56.86
14882;BME280;7533;51.278;12.588;2022-11-20T17:15:25;99398.03;;;23.27;56.51
14882;BME280;7533;51.278;12.588;2022-11-20T17:20:28;99398.88;;;23.27;56.37
14882;BME280;7533;51.278;12.588;2022-11-20T17:25:33;99399.47;;;23.31;56.26
14882;BME280;7533;51.278;12.588;2022-11-20T17:30:37;99392.66;;;23.36;55.49
14882;BME280;7533;51.278;12.588;2022-11-20T17:35:40;99383.41;;;23.39;55.04
14882;BME280;7533;51.278;12.588;2022-11-20T17:40:43;99376.16;;;23.39;55.17
14882;BME280;7533;51.278;12.588;2022-11-20T17:45:48;99369.31;;;23.45;55.11
14882;BME280;7533;51.278;12.588;2022-11-20T17:50:51;99374.16;;;23.51;55.11
14882;BME280;7533;51.278;12.588;2022-11-20T17:55:54;99380.44;;;23.52;55.21
14882;BME280;7533;51.278;12.588;2022-11-20T18:01:16;99379.28;;;23.54;55.04
14882;BME280;7533;51.278;12.588;2022-11-20T18:06:21;99376.44;;;23.56;54.81
14882;BME280;7533;51.278;12.588;2022-11-20T18:11:26;99373.03;;;23.54;54.74
14882;BME280;7533;51.278;12.588;2022-11-20T18:16:32;99369.34;;;23.55;55.04
14882;BME280;7533;51.278;12.588;2022-11-20T18:21:36;99357.94;;;23.51;55.09
14882;BME280;7533;51.278;12.588;2022-11-20T18:26:39;99349.16;;;23.49;54.88
14882;BME280;7533;51.278;12.588;2022-11-20T18:31:46;99345.75;;;23.47;54.94
14882;BME280;7533;51.278;12.588;2022-11-20T18:36:49;99343.91;;;23.47;54.90
14882;BME280;7533;51.278;12.588;2022-11-20T18:41:52;99337.78;;;23.45;54.92
14882;BME280;7533;51.278;12.588;2022-11-20T18:47:15;99329.28;;;23.40;55.12
14882;BME280;7533;51.278;12.588;2022-11-20T18:52:21;99331.38;;;23.37;54.87
14882;BME280;7533;51.278;12.588;2022-11-20T18:57:25;99316.19;;;23.36;55.08
14882;BME280;7533;51.278;12.588;2022-11-20T19:02:30;99321.72;;;23.34;55.08
14882;BME280;7533;51.278;12.588;2022-11-20T19:07:41;99310.91;;;23.34;55.14
14882;BME280;7533;51.278;12.588;2022-11-20T19:12:44;99306.66;;;23.32;54.86
14882;BME280;7533;51.278;12.588;2022-11-20T19:17:48;99301.97;;;23.34;55.17
14882;BME280;7533;51.278;12.588;2022-11-20T19:22:52;99287.34;;;23.36;55.33
14882;BME280;7533;51.278;12.588;2022-11-20T19:27:55;99273.53;;;23.39;55.58
14882;BME280;7533;51.278;12.588;2022-11-20T19:32:59;99278.94;;;23.39;55.95
14882;BME280;7533;51.278;12.588;2022-11-20T19:38:02;99266.59;;;23.37;56.41
14882;BME280;7533;51.278;12.588;2022-11-20T19:43:06;99258.50;;;23.37;56.53
14882;BME280;7533;51.278;12.588;2022-11-20T19:48:10;99251.38;;;23.36;56.59
14882;BME280;7533;51.278;12.588;2022-11-20T19:53:13;99243.13;;;23.37;56.76
14882;BME280;7533;51.278;12.588;2022-11-20T19:58:16;99226.09;;;23.37;56.87
14882;BME280;7533;51.278;12.588;2022-11-20T20:03:20;99223.38;;;23.37;56.96
14882;BME280;7533;51.278;12.588;2022-11-20T20:08:23;99210.88;;;23.36;57.04
14882;BME280;7533;51.278;12.588;2022-11-20T20:13:26;99213.59;;;23.36;57.27
14882;BME280;7533;51.278;12.588;2022-11-20T20:18:30;99211.75;;;23.36;57.36
14882;BME280;7533;51.278;12.588;2022-11-20T20:23:33;99203.78;;;23.35;57.39
14882;BME280;7533;51.278;12.588;2022-11-20T20:28:37;99200.94;;;23.36;57.39
14882;BME280;7533;51.278;12.588;2022-11-20T20:33:42;99199.09;;;23.37;57.61
14882;BME280;7533;51.278;12.588;2022-11-20T20:38:46;99205.50;;;23.36;57.49
14882;BME280;7533;51.278;12.588;2022-11-20T20:43:49;99189.41;;;23.34;57.63
14882;BME280;7533;51.278;12.588;2022-11-20T20:49:11;99187.59;;;23.35;57.49
14882;BME280;7533;51.278;12.588;2022-11-20T20:54:14;99174.09;;;23.35;57.44
14882;BME280;7533;51.278;12.588;2022-11-20T20:59:17;99182.31;;;23.33;57.50
14882;BME280;7533;51.278;12.588;2022-11-20T21:04:21;99194.97;;;23.33;57.24
14882;BME280;7533;51.278;12.588;2022-11-20T21:09:24;99176.78;;;23.35;57.26
14882;BME280;7533;51.278;12.588;2022-11-20T21:14:27;99171.25;;;23.36;57.22
14882;BME280;7533;51.278;12.588;2022-11-20T21:19:32;99163.56;;;23.32;56.77
14882;BME280;7533;51.278;12.588;2022-11-20T21:24:35;99155.75;;;23.29;57.34
14882;BME280;7533;51.278;12.588;2022-11-20T21:29:38;99149.66;;;23.27;57.49
14882;BME280;7533;51.278;12.588;2022-11-20T21:34:42;99142.25;;;23.29;57.56
14882;BME280;7533;51.278;12.588;2022-11-20T21:39:45;99130.91;;;23.25;57.58
14882;BME280;7533;51.278;12.588;2022-11-20T21:44:52;99121.97;;;23.25;57.62
14882;BME280;7533;51.278;12.588;2022-11-20T21:49:56;99114.72;;;23.25;57.53
14882;BME280;7533;51.278;12.588;2022-11-20T21:54:59;99114.88;;;23.23;57.68
14882;BME280;7533;51.278;12.588;2022-11-20T22:00:03;99110.16;;;23.26;57.73
14882;BME280;7533;51.278;12.588;2022-11-20T22:05:12;99108.47;;;23.25;57.65
14882;BME280;7533;51.278;12.588;2022-11-20T22:10:15;99100.50;;;23.23;57.78
14882;BME280;7533;51.278;12.588;2022-11-20T22:15:19;99083.75;;;23.19;57.68
14882;BME280;7533;51.278;12.588;2022-11-20T22:20:43;99071.97;;;23.20;57.63
14882;BME280;7533;51.278;12.588;2022-11-20T22:25:46;99062.84;;;23.21;57.89
14882;BME280;7533;51.278;12.588;2022-11-20T22:30:49;99050.34;;;23.20;57.86
14882;BME280;7533;51.278;12.588;2022-11-20T22:35:58;99022.69;;;23.18;57.67
14882;BME280;7533;51.278;12.588;2022-11-20T22:41:02;99018.13;;;23.19;57.79
14882;BME280;7533;51.278;12.588;2022-11-20T22:46:06;99007.44;;;23.17;57.89
14882;BME280;7533;51.278;12.588;2022-11-20T22:51:13;99001.09;;;23.18;57.81
14882;BME280;7533;51.278;12.588;2022-11-20T22:56:16;98992.13;;;23.18;57.87
14882;BME280;7533;51.278;12.588;2022-11-20T23:01:21;98979.63;;;23.17;57.96
14882;BME280;7533;51.278;12.588;2022-11-20T23:06:25;98978.66;;;23.18;57.96
14882;BME280;7533;51.278;12.588;2022-11-20T23:11:29;98966.97;;;23.17;57.88
14882;BME280;7533;51.278;12.588;2022-11-20T23:16:33;98951.94;;;23.15;58.10
14882;BME280;7533;51.278;12.588;2022-11-20T23:21:39;98934.75;;;23.16;57.95
14882;BME280;7533;51.278;12.588;2022-11-20T23:26:42;98928.50;;;23.15;58.11
14882;BME280;7533;51.278;12.588;2022-11-20T23:31:47;98916.41;;;23.19;58.12
14882;BME280;7533;51.278;12.588;2022-11-20T23:36:51;98898.34;;;23.20;58.32
14882;BME280;7533;51.278;12.588;2022-11-20T23:41:54;98892.81;;;23.21;58.53
14882;BME280;7533;51.278;12.588;2022-11-20T23:46:57;98885.16;;;23.17;58.43
14882;BME280;7533;51.278;12.588;2022-11-20T23:52:01;98878.50;;;23.11;58.61
14882;BME280;7533;51.278;12.588;2022-11-20T23:57:04;98872.72;;;23.06;58.79
